sensor_id;sensor_type;location;lat;lon;timestamp;P1;durP1;ratioP1;P2;durP2;ratioP2
32319;SDS011;19080;51.750;5.888;2023-04-10T00:00:27;12.73;;;10.30;;
32319;SDS011;19080;51.750;5.888;2023-04-10T00:02:54;14.15;;;10.77;;
32319;SDS011;19080;51.750;5.888;2023-04-10T00:05:21;12.65;;;10.15;;
32319;SDS011;19080;51.750;5.888;2023-04-10T00:07:48;12.00;;;10.13;;
32319;SDS011;19080;51.750;5.888;2023-04-10T00:10:15;12.73;;;9.23;;
32319;SDS011;19080;51.750;5.888;2023-04-10T00:12:42;13.18;;;10.32;;
32319;SDS011;19080;51.750;5.888;2023-04-10T00:15:09;10.68;;;9.07;;
32319;SDS011;19080;51.750;5.888;2023-04-10T00:17:35;13.05;;;9.57;;
32319;SDS011;19080;51.750;5.888;2023-04-10T00:20:02;11.88;;;9.75;;
32319;SDS011;19080;51.750;5.888;2023-04-10T00:22:30;12.07;;;9.05;;
32319;SDS011;19080;51.750;5.888;2023-04-10T00:24:56;11.07;;;9.15;;
32319;SDS011;19080;51.750;5.888;2023-04-10T00:27:23;10.30;;;8.38;;
32319;SDS011;19080;51.750;5.888;2023-04-10T00:29:50;10.52;;;8.18;;
32319;SDS011;19080;51.750;5.888;2023-04-10T00:32:17;11.18;;;8.73;;
32319;SDS011;19080;51.750;5.888;2023-04-10T00:34:43;11.80;;;9.65;;
32319;SDS011;19080;51.750;5.888;2023-04-10T00:37:10;13.02;;;9.00;;
32319;SDS011;19080;51.750;5.888;2023-04-10T00:39:37;11.93;;;9.30;;
32319;SDS011;19080;51.750;5.888;2023-04-10T00:42:03;13.57;;;9.45;;
32319;SDS011;19080;51.750;5.888;2023-04-10T00:44:34;13.23;;;9.40;;
32319;SDS011;19080;51.750;5.888;2023-04-10T00:47:03;12.07;;;10.02;;
32319;SDS011;19080;51.750;5.888;2023-04-10T00:49:31;11.55;;;9.07;;
32319;SDS011;19080;51.750;5.888;2023-04-10T00:51:58;11.95;;;9.40;;
32319;SDS011;19080;51.750;5.888;2023-04-10T00:54:26;11.15;;;8.88;;
32319;SDS011;19080;51.750;5.888;2023-04-10T00:56:53;12.07;;;9.70;;
32319;SDS011;19080;51.750;5.888;2023-04-10T00:59:22;10.40;;;9.13;;
32319;SDS011;19080;51.750;5.888;2023-04-10T01:01:50;13.02;;;9.50;;
32319;SDS011;19080;51.750;5.888;2023-04-10T01:04:17;13.80;;;9.23;;
32319;SDS011;19080;51.750;5.888;2023-04-10T01:09:47;13.52;;;9.93;;
32319;SDS011;19080;51.750;5.888;2023-04-10T01:12:33;11.60;;;9.07;;
32319;SDS011;19080;51.750;5.888;2023-04-10T01:15:10;13.23;;;9.60;;
32319;SDS011;19080;51.750;5.888;2023-04-10T01:20:27;14.55;;;10.90;;
32319;SDS011;19080;51.750;5.888;2023-04-10T01:25:58;14.88;;;10.27;;
32319;SDS011;19080;51.750;5.888;2023-04-10T01:31:25;14.43;;;10.10;;
32319;SDS011;19080;51.750;5.888;2023-04-10T01:33:57;14.80;;;10.40;;
32319;SDS011;19080;51.750;5.888;2023-04-10T01:36:31;12.63;;;9.98;;
32319;SDS011;19080;51.750;5.888;2023-04-10T01:39:02;13.70;;;10.48;;
32319;SDS011;19080;51.750;5.888;2023-04-10T01:41:31;16.23;;;10.60;;
32319;SDS011;19080;51.750;5.888;2023-04-10T01:43:59;14.48;;;10.32;;
32319;SDS011;19080;51.750;5.888;2023-04-10T01:46:29;14.30;;;10.70;;
32319;SDS011;19080;51.750;5.888;2023-04-10T01:48:57;12.73;;;9.80;;
32319;SDS011;19080;51.750;5.888;2023-04-10T01:51:26;15.43;;;10.48;;
32319;SDS011;19080;51.750;5.888;2023-04-10T01:53:54;13.35;;;9.52;;
32319;SDS011;19080;51.750;5.888;2023-04-10T01:56:25;13.52;;;10.52;;
32319;SDS011;19080;51.750;5.888;2023-04-10T01:58:54;13.60;;;9.75;;
32319;SDS011;19080;51.750;5.888;2023-04-10T02:01:21;11.65;;;9.57;;
32319;SDS011;19080;51.750;5.888;2023-04-10T02:04:23;13.30;;;9.07;;
32319;SDS011;19080;51.750;5.888;2023-04-10T02:12:37;13.43;;;9.63;;
32319;SDS011;19080;51.750;5.888;2023-04-10T02:15:07;14.43;;;10.50;;
32319;SDS011;19080;51.750;5.888;2023-04-10T02:17:35;14.38;;;10.23;;
32319;SDS011;19080;51.750;5.888;2023-04-10T02:20:02;14.60;;;11.13;;
32319;SDS011;19080;51.750;5.888;2023-04-10T02:22:31;11.82;;;9.07;;
32319;SDS011;19080;51.750;5.888;2023-04-10T02:24:59;15.82;;;10.60;;
32319;SDS011;19080;51.750;5.888;2023-04-10T02:27:26;17.85;;;10.50;;
32319;SDS011;19080;51.750;5.888;2023-04-10T02:29:54;13.80;;;10.02;;
32319;SDS011;19080;51.750;5.888;2023-04-10T02:32:22;16.67;;;10.10;;
32319;SDS011;19080;51.750;5.888;2023-04-10T02:34:49;14.27;;;10.25;;
32319;SDS011;19080;51.750;5.888;2023-04-10T02:37:16;14.88;;;10.25;;
32319;SDS011;19080;51.750;5.888;2023-04-10T02:39:42;13.73;;;9.90;;
32319;SDS011;19080;51.750;5.888;2023-04-10T02:42:09;14.60;;;9.32;;
32319;SDS011;19080;51.750;5.888;2023-04-10T02:44:37;11.15;;;9.23;;
32319;SDS011;19080;51.750;5.888;2023-04-10T02:47:07;12.00;;;9.35;;
32319;SDS011;19080;51.750;5.888;2023-04-10T02:49:37;14.13;;;9.13;;
32319;SDS011;19080;51.750;5.888;2023-04-10T02:52:10;15.27;;;9.43;;
32319;SDS011;19080;51.750;5.888;2023-04-10T02:54:36;14.13;;;9.05;;
32319;SDS011;19080;51.750;5.888;2023-04-10T02:57:03;11.20;;;8.55;;
32319;SDS011;19080;51.750;5.888;2023-04-10T02:59:30;16.30;;;8.60;;
32319;SDS011;19080;51.750;5.888;2023-04-10T03:01:57;11.05;;;8.85;;
32319;SDS011;19080;51.750;5.888;2023-04-10T03:04:23;13.77;;;8.98;;
32319;SDS011;19080;51.750;5.888;2023-04-10T03:06:50;14.00;;;9.95;;
32319;SDS011;19080;51.750;5.888;2023-04-10T03:09:17;13.55;;;10.00;;
32319;SDS011;19080;51.750;5.888;2023-04-10T03:11:44;12.82;;;10.15;;
32319;SDS011;19080;51.750;5.888;2023-04-10T03:14:11;12.40;;;10.02;;
32319;SDS011;19080;51.750;5.888;2023-04-10T03:16:38;12.07;;;9.57;;
32319;SDS011;19080;51.750;5.888;2023-04-10T03:19:04;13.63;;;10.23;;
32319;SDS011;19080;51.750;5.888;2023-04-10T03:21:31;12.82;;;9.27;;
32319;SDS011;19080;51.750;5.888;2023-04-10T03:23:58;12.95;;;9.77;;
32319;SDS011;19080;51.750;5.888;2023-04-10T03:26:25;14.32;;;10.20;;
32319;SDS011;19080;51.750;5.888;2023-04-10T03:28:52;18.25;;;10.10;;
32319;SDS011;19080;51.750;5.888;2023-04-10T03:31:18;12.90;;;9.93;;
32319;SDS011;19080;51.750;5.888;2023-04-10T03:33:45;13.65;;;9.38;;
32319;SDS011;19080;51.750;5.888;2023-04-10T03:36:12;13.27;;;9.70;;
32319;SDS011;19080;51.750;5.888;2023-04-10T03:38:39;14.45;;;10.00;;
32319;SDS011;19080;51.750;5.888;2023-04-10T03:41:07;15.05;;;9.98;;
32319;SDS011;19080;51.750;5.888;2023-04-10T03:43:34;12.80;;;10.20;;
32319;SDS011;19080;51.750;5.888;2023-04-10T03:46:02;15.23;;;10.52;;
32319;SDS011;19080;51.750;5.888;2023-04-10T03:48:28;13.32;;;10.68;;
32319;SDS011;19080;51.750;5.888;2023-04-10T03:50:56;13.48;;;10.45;;
32319;SDS011;19080;51.750;5.888;2023-04-10T03:53:23;15.88;;;11.35;;
32319;SDS011;19080;51.750;5.888;2023-04-10T03:55:51;14.65;;;10.27;;
32319;SDS011;19080;51.750;5.888;2023-04-10T03:58:20;12.35;;;10.00;;
32319;SDS011;19080;51.750;5.888;2023-04-10T04:00:47;12.45;;;10.40;;
32319;SDS011;19080;51.750;5.888;2023-04-10T04:03:31;13.18;;;9.77;;
32319;SDS011;19080;51.750;5.888;2023-04-10T04:06:04;13.32;;;10.20;;
32319;SDS011;19080;51.750;5.888;2023-04-10T04:08:31;12.45;;;9.60;;
32319;SDS011;19080;51.750;5.888;2023-04-10T04:11:16;17.60;;;10.48;;
32319;SDS011;19080;51.750;5.888;2023-04-10T04:14:21;11.75;;;9.55;;
32319;SDS011;19080;51.750;5.888;2023-04-10T04:17:08;12.52;;;9.52;;
32319;SDS011;19080;51.750;5.888;2023-04-10T04:19:53;14.18;;;10.45;;
32319;SDS011;19080;51.750;5.888;2023-04-10T04:22:43;13.55;;;10.18;;
32319;SDS011;19080;51.750;5.888;2023-04-10T04:25:28;16.38;;;10.90;;
32319;SDS011;19080;51.750;5.888;2023-04-10T04:28:13;16.02;;;10.70;;
32319;SDS011;19080;51.750;5.888;2023-04-10T04:31:07;14.30;;;10.32;;
32319;SDS011;19080;51.750;5.888;2023-04-10T04:33:47;13.73;;;10.60;;
32319;SDS011;19080;51.750;5.888;2023-04-10T04:36:39;12.30;;;9.52;;
32319;SDS011;19080;51.750;5.888;2023-04-10T04:39:38;15.68;;;10.45;;
32319;SDS011;19080;51.750;5.888;2023-04-10T04:42:23;14.50;;;10.23;;
32319;SDS011;19080;51.750;5.888;2023-04-10T04:45:01;12.48;;;9.98;;
32319;SDS011;19080;51.750;5.888;2023-04-10T04:48:03;12.75;;;10.40;;
32319;SDS011;19080;51.750;5.888;2023-04-10T04:50:48;12.98;;;9.70;;
32319;SDS011;19080;51.750;5.888;2023-04-10T04:53:33;12.30;;;9.48;;
32319;SDS011;19080;51.750;5.888;2023-04-10T04:56:09;13.98;;;10.65;;
32319;SDS011;19080;51.750;5.888;2023-04-10T04:58:46;12.40;;;10.50;;
32319;SDS011;19080;51.750;5.888;2023-04-10T05:01:30;14.95;;;11.13;;
32319;SDS011;19080;51.750;5.888;2023-04-10T05:04:16;13.32;;;9.90;;
32319;SDS011;19080;51.750;5.888;2023-04-10T05:07:13;14.50;;;10.23;;
32319;SDS011;19080;51.750;5.888;2023-04-10T05:09:45;12.63;;;10.32;;
32319;SDS011;19080;51.750;5.888;2023-04-10T05:12:30;15.80;;;10.85;;
32319;SDS011;19080;51.750;5.888;2023-04-10T05:15:02;13.10;;;10.88;;
32319;SDS011;19080;51.750;5.888;2023-04-10T05:17:48;12.52;;;10.10;;
32319;SDS011;19080;51.750;5.888;2023-04-10T05:20:51;14.40;;;10.55;;
32319;SDS011;19080;51.750;5.888;2023-04-10T05:23:53;16.05;;;11.55;;
32319;SDS011;19080;51.750;5.888;2023-04-10T05:26:28;14.52;;;10.25;;
32319;SDS011;19080;51.750;5.888;2023-04-10T05:29:24;12.85;;;10.25;;
32319;SDS011;19080;51.750;5.888;2023-04-10T05:32:11;14.85;;;10.38;;
32319;SDS011;19080;51.750;5.888;2023-04-10T05:34:42;11.20;;;8.93;;
32319;SDS011;19080;51.750;5.888;2023-04-10T05:37:12;12.88;;;10.13;;
32319;SDS011;19080;51.750;5.888;2023-04-10T05:39:49;13.68;;;9.43;;
32319;SDS011;19080;51.750;5.888;2023-04-10T05:42:24;14.88;;;10.30;;
32319;SDS011;19080;51.750;5.888;2023-04-10T05:45:01;11.73;;;9.60;;
32319;SDS011;19080;51.750;5.888;2023-04-10T05:47:52;12.45;;;9.98;;
32319;SDS011;19080;51.750;5.888;2023-04-10T05:50:35;13.40;;;9.93;;
32319;SDS011;19080;51.750;5.888;2023-04-10T05:53:34;11.57;;;9.45;;
32319;SDS011;19080;51.750;5.888;2023-04-10T05:56:24;12.82;;;9.40;;
32319;SDS011;19080;51.750;5.888;2023-04-10T05:59:06;12.73;;;9.57;;
32319;SDS011;19080;51.750;5.888;2023-04-10T06:01:53;12.30;;;9.57;;
32319;SDS011;19080;51.750;5.888;2023-04-10T06:04:22;11.48;;;8.77;;
32319;SDS011;19080;51.750;5.888;2023-04-10T06:06:52;14.30;;;9.93;;
32319;SDS011;19080;51.750;5.888;2023-04-10T06:09:19;13.55;;;9.45;;
32319;SDS011;19080;51.750;5.888;2023-04-10T06:11:46;12.75;;;9.43;;
32319;SDS011;19080;51.750;5.888;2023-04-10T06:14:16;11.38;;;9.55;;
32319;SDS011;19080;51.750;5.888;2023-04-10T06:16:45;13.38;;;10.40;;
32319;SDS011;19080;51.750;5.888;2023-04-10T06:19:14;12.13;;;9.55;;
32319;SDS011;19080;51.750;5.888;2023-04-10T06:21:40;16.20;;;11.25;;
32319;SDS011;19080;51.750;5.888;2023-04-10T06:24:07;13.57;;;10.55;;
32319;SDS011;19080;51.750;5.888;2023-04-10T06:26:36;13.60;;;10.40;;
32319;SDS011;19080;51.750;5.888;2023-04-10T06:29:03;13.18;;;10.57;;
32319;SDS011;19080;51.750;5.888;2023-04-10T06:31:31;14.30;;;10.63;;
32319;SDS011;19080;51.750;5.888;2023-04-10T06:33:59;13.70;;;11.57;;
32319;SDS011;19080;51.750;5.888;2023-04-10T06:36:26;15.02;;;11.50;;
32319;SDS011;19080;51.750;5.888;2023-04-10T06:38:59;20.55;;;12.07;;
32319;SDS011;19080;51.750;5.888;2023-04-10T06:41:28;13.45;;;10.80;;
32319;SDS011;19080;51.750;5.888;2023-04-10T06:44:03;15.02;;;11.95;;
32319;SDS011;19080;51.750;5.888;2023-04-10T06:46:30;13.63;;;11.40;;
32319;SDS011;19080;51.750;5.888;2023-04-10T06:48:57;15.05;;;11.00;;
32319;SDS011;19080;51.750;5.888;2023-04-10T06:51:23;16.70;;;11.30;;
32319;SDS011;19080;51.750;5.888;2023-04-10T06:53:50;14.85;;;10.90;;
32319;SDS011;19080;51.750;5.888;2023-04-10T06:56:16;13.25;;;10.43;;
32319;SDS011;19080;51.750;5.888;2023-04-10T06:58:43;14.68;;;11.07;;
32319;SDS011;19080;51.750;5.888;2023-04-10T07:01:10;13.95;;;10.70;;
32319;SDS011;19080;51.750;5.888;2023-04-10T07:03:36;12.35;;;10.00;;
32319;SDS011;19080;51.750;5.888;2023-04-10T07:06:03;11.38;;;9.90;;
32319;SDS011;19080;51.750;5.888;2023-04-10T07:08:30;11.80;;;9.48;;
32319;SDS011;19080;51.750;5.888;2023-04-10T07:10:56;10.07;;;8.77;;
32319;SDS011;19080;51.750;5.888;2023-04-10T07:13:24;11.82;;;9.77;;
32319;SDS011;19080;51.750;5.888;2023-04-10T07:15:51;11.88;;;10.13;;
32319;SDS011;19080;51.750;5.888;2023-04-10T07:18:17;10.27;;;9.02;;
32319;SDS011;19080;51.750;5.888;2023-04-10T07:20:44;10.38;;;8.85;;
32319;SDS011;19080;51.750;5.888;2023-04-10T07:23:11;10.98;;;9.25;;
32319;SDS011;19080;51.750;5.888;2023-04-10T07:25:37;11.68;;;9.98;;
32319;SDS011;19080;51.750;5.888;2023-04-10T07:28:04;12.88;;;9.82;;
32319;SDS011;19080;51.750;5.888;2023-04-10T07:30:30;11.55;;;9.80;;
32319;SDS011;19080;51.750;5.888;2023-04-10T07:32:57;13.80;;;9.80;;
32319;SDS011;19080;51.750;5.888;2023-04-10T07:35:23;10.88;;;9.75;;
32319;SDS011;19080;51.750;5.888;2023-04-10T07:37:50;10.75;;;8.85;;
32319;SDS011;19080;51.750;5.888;2023-04-10T07:40:18;12.35;;;10.15;;
32319;SDS011;19080;51.750;5.888;2023-04-10T07:42:44;11.00;;;9.27;;
32319;SDS011;19080;51.750;5.888;2023-04-10T07:45:11;10.60;;;9.20;;
32319;SDS011;19080;51.750;5.888;2023-04-10T07:47:38;12.80;;;9.48;;
32319;SDS011;19080;51.750;5.888;2023-04-10T07:50:05;10.38;;;9.27;;
32319;SDS011;19080;51.750;5.888;2023-04-10T07:52:32;10.95;;;8.73;;
32319;SDS011;19080;51.750;5.888;2023-04-10T07:55:02;10.27;;;8.85;;
32319;SDS011;19080;51.750;5.888;2023-04-10T07:57:29;11.65;;;9.52;;
32319;SDS011;19080;51.750;5.888;2023-04-10T07:59:57;11.00;;;9.30;;
32319;SDS011;19080;51.750;5.888;2023-04-10T08:02:24;9.93;;;8.88;;
32319;SDS011;19080;51.750;5.888;2023-04-10T08:04:51;10.88;;;8.45;;
32319;SDS011;19080;51.750;5.888;2023-04-10T08:07:19;9.68;;;8.60;;
32319;SDS011;19080;51.750;5.888;2023-04-10T08:09:46;9.98;;;8.57;;
32319;SDS011;19080;51.750;5.888;2023-04-10T08:12:13;10.32;;;8.38;;
32319;SDS011;19080;51.750;5.888;2023-04-10T08:14:40;9.98;;;8.80;;
32319;SDS011;19080;51.750;5.888;2023-04-10T08:17:06;9.63;;;8.60;;
32319;SDS011;19080;51.750;5.888;2023-04-10T08:19:40;9.57;;;8.10;;
32319;SDS011;19080;51.750;5.888;2023-04-10T08:22:07;9.85;;;8.82;;
32319;SDS011;19080;51.750;5.888;2023-04-10T08:24:34;9.00;;;8.05;;
32319;SDS011;19080;51.750;5.888;2023-04-10T08:27:00;10.40;;;8.10;;
32319;SDS011;19080;51.750;5.888;2023-04-10T08:29:27;12.50;;;8.70;;
32319;SDS011;19080;51.750;5.888;2023-04-10T08:31:53;10.27;;;8.68;;
32319;SDS011;19080;51.750;5.888;2023-04-10T08:34:21;8.60;;;7.50;;
32319;SDS011;19080;51.750;5.888;2023-04-10T08:36:49;9.18;;;8.25;;
32319;SDS011;19080;51.750;5.888;2023-04-10T08:39:16;10.45;;;8.60;;
32319;SDS011;19080;51.750;5.888;2023-04-10T08:41:43;10.07;;;8.55;;
32319;SDS011;19080;51.750;5.888;2023-04-10T08:44:10;9.68;;;8.00;;
32319;SDS011;19080;51.750;5.888;2023-04-10T08:46:37;9.02;;;8.10;;
32319;SDS011;19080;51.750;5.888;2023-04-10T08:49:09;9.80;;;8.50;;
32319;SDS011;19080;51.750;5.888;2023-04-10T08:51:42;9.70;;;7.97;;
32319;SDS011;19080;51.750;5.888;2023-04-10T08:54:22;7.57;;;6.82;;
32319;SDS011;19080;51.750;5.888;2023-04-10T08:56:53;9.30;;;8.30;;
32319;SDS011;19080;51.750;5.888;2023-04-10T08:59:21;7.82;;;6.43;;
32319;SDS011;19080;51.750;5.888;2023-04-10T09:01:48;10.32;;;7.40;;
32319;SDS011;19080;51.750;5.888;2023-04-10T09:04:15;8.48;;;7.05;;
32319;SDS011;19080;51.750;5.888;2023-04-10T09:06:44;7.90;;;7.10;;
32319;SDS011;19080;51.750;5.888;2023-04-10T09:09:11;8.98;;;6.68;;
32319;SDS011;19080;51.750;5.888;2023-04-10T09:14:28;8.25;;;6.07;;
32319;SDS011;19080;51.750;5.888;2023-04-10T09:17:14;7.75;;;6.28;;
32319;SDS011;19080;51.750;5.888;2023-04-10T09:19:43;7.15;;;6.22;;
32319;SDS011;19080;51.750;5.888;2023-04-10T09:22:11;8.65;;;6.32;;
32319;SDS011;19080;51.750;5.888;2023-04-10T09:24:38;10.30;;;6.60;;
32319;SDS011;19080;51.750;5.888;2023-04-10T09:27:08;8.05;;;6.22;;
32319;SDS011;19080;51.750;5.888;2023-04-10T09:29:45;6.53;;;5.90;;
32319;SDS011;19080;51.750;5.888;2023-04-10T09:32:35;7.60;;;6.47;;
32319;SDS011;19080;51.750;5.888;2023-04-10T09:35:04;6.82;;;6.13;;
32319;SDS011;19080;51.750;5.888;2023-04-10T09:37:31;6.55;;;5.95;;
32319;SDS011;19080;51.750;5.888;2023-04-10T09:39:58;7.40;;;6.65;;
32319;SDS011;19080;51.750;5.888;2023-04-10T09:42:33;9.15;;;6.32;;
32319;SDS011;19080;51.750;5.888;2023-04-10T09:45:02;7.75;;;6.60;;
32319;SDS011;19080;51.750;5.888;2023-04-10T09:47:30;7.80;;;6.45;;
32319;SDS011;19080;51.750;5.888;2023-04-10T09:49:57;7.47;;;6.50;;
32319;SDS011;19080;51.750;5.888;2023-04-10T09:52:29;7.45;;;6.68;;
32319;SDS011;19080;51.750;5.888;2023-04-10T09:54:58;6.95;;;5.93;;
32319;SDS011;19080;51.750;5.888;2023-04-10T09:57:30;8.13;;;5.82;;
32319;SDS011;19080;51.750;5.888;2023-04-10T10:00:00;6.63;;;6.03;;
32319;SDS011;19080;51.750;5.888;2023-04-10T10:02:34;8.85;;;6.40;;
32319;SDS011;19080;51.750;5.888;2023-04-10T10:05:04;7.88;;;6.05;;
32319;SDS011;19080;51.750;5.888;2023-04-10T10:07:32;6.72;;;5.90;;
32319;SDS011;19080;51.750;5.888;2023-04-10T10:09:59;6.47;;;5.80;;
32319;SDS011;19080;51.750;5.888;2023-04-10T10:12:34;6.22;;;5.63;;
32319;SDS011;19080;51.750;5.888;2023-04-10T10:15:23;6.57;;;5.82;;
32319;SDS011;19080;51.750;5.888;2023-04-10T10:20:35;6.97;;;5.97;;
32319;SDS011;19080;51.750;5.888;2023-04-10T10:23:05;6.28;;;5.60;;
32319;SDS011;19080;51.750;5.888;2023-04-10T10:25:33;6.28;;;5.57;;
32319;SDS011;19080;51.750;5.888;2023-04-10T10:28:01;6.93;;;6.18;;
32319;SDS011;19080;51.750;5.888;2023-04-10T10:30:32;6.03;;;5.43;;
32319;SDS011;19080;51.750;5.888;2023-04-10T10:33:01;6.85;;;6.07;;
32319;SDS011;19080;51.750;5.888;2023-04-10T10:35:35;6.50;;;5.87;;
32319;SDS011;19080;51.750;5.888;2023-04-10T10:38:03;6.80;;;6.13;;
32319;SDS011;19080;51.750;5.888;2023-04-10T10:40:48;6.43;;;5.57;;
32319;SDS011;19080;51.750;5.888;2023-04-10T10:43:24;6.88;;;5.35;;
32319;SDS011;19080;51.750;5.888;2023-04-10T10:46:02;6.43;;;5.82;;
32319;SDS011;19080;51.750;5.888;2023-04-10T10:48:32;5.75;;;5.15;;
32319;SDS011;19080;51.750;5.888;2023-04-10T10:50:59;6.88;;;5.82;;
32319;SDS011;19080;51.750;5.888;2023-04-10T10:53:34;8.07;;;5.95;;
32319;SDS011;19080;51.750;5.888;2023-04-10T10:58:52;6.40;;;5.53;;
32319;SDS011;19080;51.750;5.888;2023-04-10T11:01:21;5.25;;;4.75;;
32319;SDS011;19080;51.750;5.888;2023-04-10T11:03:48;5.13;;;4.63;;
32319;SDS011;19080;51.750;5.888;2023-04-10T11:06:16;6.28;;;5.13;;
32319;SDS011;19080;51.750;5.888;2023-04-10T11:08:48;4.95;;;4.32;;
32319;SDS011;19080;51.750;5.888;2023-04-10T11:11:19;6.72;;;4.90;;
32319;SDS011;19080;51.750;5.888;2023-04-10T11:16:23;7.90;;;5.25;;
32319;SDS011;19080;51.750;5.888;2023-04-10T11:19:07;7.47;;;5.70;;
32319;SDS011;19080;51.750;5.888;2023-04-10T11:24:28;5.93;;;5.32;;
32319;SDS011;19080;51.750;5.888;2023-04-10T11:26:55;6.45;;;5.07;;
32319;SDS011;19080;51.750;5.888;2023-04-10T11:31:55;6.25;;;4.30;;
32319;SDS011;19080;51.750;5.888;2023-04-10T11:34:23;5.28;;;4.78;;
32319;SDS011;19080;51.750;5.888;2023-04-10T11:36:52;5.88;;;4.97;;
32319;SDS011;19080;51.750;5.888;2023-04-10T11:39:19;5.85;;;5.25;;
32319;SDS011;19080;51.750;5.888;2023-04-10T11:41:47;6.30;;;4.75;;
32319;SDS011;19080;51.750;5.888;2023-04-10T11:44:17;5.00;;;4.60;;
32319;SDS011;19080;51.750;5.888;2023-04-10T11:46:51;4.55;;;4.15;;
32319;SDS011;19080;51.750;5.888;2023-04-10T11:49:22;4.05;;;3.65;;
32319;SDS011;19080;51.750;5.888;2023-04-10T11:51:50;3.95;;;3.55;;
32319;SDS011;19080;51.750;5.888;2023-04-10T11:59:28;3.38;;;3.10;;
32319;SDS011;19080;51.750;5.888;2023-04-10T12:02:06;5.30;;;3.50;;
32319;SDS011;19080;51.750;5.888;2023-04-10T12:04:35;4.75;;;4.13;;
32319;SDS011;19080;51.750;5.888;2023-04-10T12:07:02;6.35;;;3.50;;
32319;SDS011;19080;51.750;5.888;2023-04-10T12:09:30;4.53;;;3.60;;
32319;SDS011;19080;51.750;5.888;2023-04-10T12:12:04;4.28;;;3.33;;
32319;SDS011;19080;51.750;5.888;2023-04-10T12:14:36;4.93;;;3.45;;
32319;SDS011;19080;51.750;5.888;2023-04-10T12:17:07;3.67;;;3.38;;
32319;SDS011;19080;51.750;5.888;2023-04-10T12:19:37;3.72;;;3.42;;
32319;SDS011;19080;51.750;5.888;2023-04-10T12:22:04;3.97;;;3.58;;
32319;SDS011;19080;51.750;5.888;2023-04-10T12:24:41;3.85;;;3.10;;
32319;SDS011;19080;51.750;5.888;2023-04-10T12:27:23;3.47;;;3.17;;
32319;SDS011;19080;51.750;5.888;2023-04-10T12:29:52;6.72;;;3.50;;
32319;SDS011;19080;51.750;5.888;2023-04-10T12:32:21;4.93;;;3.53;;
32319;SDS011;19080;51.750;5.888;2023-04-10T12:34:49;3.60;;;3.30;;
32319;SDS011;19080;51.750;5.888;2023-04-10T12:37:17;3.60;;;3.30;;
32319;SDS011;19080;51.750;5.888;2023-04-10T12:39:44;4.10;;;3.65;;
32319;SDS011;19080;51.750;5.888;2023-04-10T12:44:55;3.35;;;3.03;;
32319;SDS011;19080;51.750;5.888;2023-04-10T12:47:25;3.40;;;3.10;;
32319;SDS011;19080;51.750;5.888;2023-04-10T12:50:09;4.25;;;3.30;;
32319;SDS011;19080;51.750;5.888;2023-04-10T12:52:38;4.35;;;3.70;;
32319;SDS011;19080;51.750;5.888;2023-04-10T12:55:07;5.68;;;3.30;;
32319;SDS011;19080;51.750;5.888;2023-04-10T12:57:41;3.03;;;2.72;;
32319;SDS011;19080;51.750;5.888;2023-04-10T13:00:09;3.33;;;3.00;;
32319;SDS011;19080;51.750;5.888;2023-04-10T13:02:38;4.22;;;3.05;;
32319;SDS011;19080;51.750;5.888;2023-04-10T13:05:06;5.57;;;3.63;;
32319;SDS011;19080;51.750;5.888;2023-04-10T13:07:35;3.55;;;3.17;;
32319;SDS011;19080;51.750;5.888;2023-04-10T13:10:03;4.78;;;3.40;;
32319;SDS011;19080;51.750;5.888;2023-04-10T13:12:32;4.68;;;3.50;;
32319;SDS011;19080;51.750;5.888;2023-04-10T13:15:00;3.45;;;3.15;;
32319;SDS011;19080;51.750;5.888;2023-04-10T13:17:29;3.40;;;3.10;;
32319;SDS011;19080;51.750;5.888;2023-04-10T13:19:55;3.92;;;2.97;;
32319;SDS011;19080;51.750;5.888;2023-04-10T13:22:22;3.95;;;3.03;;
32319;SDS011;19080;51.750;5.888;2023-04-10T13:24:49;5.28;;;3.20;;
32319;SDS011;19080;51.750;5.888;2023-04-10T13:27:15;3.97;;;3.30;;
32319;SDS011;19080;51.750;5.888;2023-04-10T13:29:42;3.70;;;3.40;;
32319;SDS011;19080;51.750;5.888;2023-04-10T13:32:09;5.00;;;3.50;;
32319;SDS011;19080;51.750;5.888;2023-04-10T13:34:36;3.47;;;3.17;;
32319;SDS011;19080;51.750;5.888;2023-04-10T13:37:02;4.05;;;3.33;;
32319;SDS011;19080;51.750;5.888;2023-04-10T13:39:29;4.95;;;3.33;;
32319;SDS011;19080;51.750;5.888;2023-04-10T13:41:57;5.25;;;3.15;;
32319;SDS011;19080;51.750;5.888;2023-04-10T13:44:25;6.75;;;3.28;;
32319;SDS011;19080;51.750;5.888;2023-04-10T13:46:52;5.57;;;2.85;;
32319;SDS011;19080;51.750;5.888;2023-04-10T13:49:19;4.28;;;3.47;;
32319;SDS011;19080;51.750;5.888;2023-04-10T13:51:47;3.33;;;3.03;;
32319;SDS011;19080;51.750;5.888;2023-04-10T13:54:14;4.07;;;2.95;;
32319;SDS011;19080;51.750;5.888;2023-04-10T13:56:42;5.85;;;3.30;;
32319;SDS011;19080;51.750;5.888;2023-04-10T13:59:10;3.45;;;3.15;;
32319;SDS011;19080;51.750;5.888;2023-04-10T14:01:37;6.95;;;3.30;;
32319;SDS011;19080;51.750;5.888;2023-04-10T14:04:03;3.75;;;3.05;;
32319;SDS011;19080;51.750;5.888;2023-04-10T14:06:32;3.72;;;2.90;;
32319;SDS011;19080;51.750;5.888;2023-04-10T14:08:59;3.15;;;2.80;;
32319;SDS011;19080;51.750;5.888;2023-04-10T14:11:25;3.97;;;2.80;;
32319;SDS011;19080;51.750;5.888;2023-04-10T14:13:52;3.85;;;2.95;;
32319;SDS011;19080;51.750;5.888;2023-04-10T14:16:19;4.95;;;2.50;;
32319;SDS011;19080;51.750;5.888;2023-04-10T14:18:45;4.15;;;3.05;;
32319;SDS011;19080;51.750;5.888;2023-04-10T14:21:14;4.85;;;2.90;;
32319;SDS011;19080;51.750;5.888;2023-04-10T14:23:45;2.83;;;2.60;;
32319;SDS011;19080;51.750;5.888;2023-04-10T14:33:11;3.20;;;2.90;;
32319;SDS011;19080;51.750;5.888;2023-04-10T14:35:39;3.15;;;2.85;;
32319;SDS011;19080;51.750;5.888;2023-04-10T14:41:24;3.45;;;3.13;;
32319;SDS011;19080;51.750;5.888;2023-04-10T14:44:35;3.08;;;2.70;;
32319;SDS011;19080;51.750;5.888;2023-04-10T14:47:02;4.80;;;3.60;;
32319;SDS011;19080;51.750;5.888;2023-04-10T14:49:31;6.30;;;3.70;;
32319;SDS011;19080;51.750;5.888;2023-04-10T14:51:59;8.48;;;3.17;;
32319;SDS011;19080;51.750;5.888;2023-04-10T14:54:25;3.35;;;2.83;;
32319;SDS011;19080;51.750;5.888;2023-04-10T14:56:52;2.90;;;2.60;;
32319;SDS011;19080;51.750;5.888;2023-04-10T14:59:19;4.90;;;2.83;;
32319;SDS011;19080;51.750;5.888;2023-04-10T15:01:46;3.88;;;3.20;;
32319;SDS011;19080;51.750;5.888;2023-04-10T15:04:12;4.05;;;3.20;;
32319;SDS011;19080;51.750;5.888;2023-04-10T15:06:39;2.92;;;2.63;;
32319;SDS011;19080;51.750;5.888;2023-04-10T15:09:06;4.47;;;3.20;;
32319;SDS011;19080;51.750;5.888;2023-04-10T15:11:33;4.63;;;3.10;;
32319;SDS011;19080;51.750;5.888;2023-04-10T15:13:59;5.75;;;2.67;;
32319;SDS011;19080;51.750;5.888;2023-04-10T15:16:30;2.80;;;2.45;;
32319;SDS011;19080;51.750;5.888;2023-04-10T15:18:57;3.53;;;2.40;;
32319;SDS011;19080;51.750;5.888;2023-04-10T15:21:23;5.05;;;2.58;;
32319;SDS011;19080;51.750;5.888;2023-04-10T15:23:52;3.53;;;3.10;;
32319;SDS011;19080;51.750;5.888;2023-04-10T15:26:19;3.55;;;2.85;;
32319;SDS011;19080;51.750;5.888;2023-04-10T15:28:46;3.78;;;2.75;;
32319;SDS011;19080;51.750;5.888;2023-04-10T15:31:13;4.35;;;3.10;;
32319;SDS011;19080;51.750;5.888;2023-04-10T15:33:40;4.50;;;3.28;;
32319;SDS011;19080;51.750;5.888;2023-04-10T15:36:07;2.85;;;2.60;;
32319;SDS011;19080;51.750;5.888;2023-04-10T15:38:34;3.63;;;2.95;;
32319;SDS011;19080;51.750;5.888;2023-04-10T15:41:06;5.65;;;3.20;;
32319;SDS011;19080;51.750;5.888;2023-04-10T15:43:34;3.88;;;3.17;;
32319;SDS011;19080;51.750;5.888;2023-04-10T15:46:01;4.20;;;2.75;;
32319;SDS011;19080;51.750;5.888;2023-04-10T15:48:27;4.10;;;3.28;;
32319;SDS011;19080;51.750;5.888;2023-04-10T15:50:54;4.75;;;3.38;;